sensor_id;sensor_type;location;lat;lon;timestamp;pressure;altitude;pressure_sealevel;temperature;humidity
7333;BME280;3707;43.618;25.342;2023-03-18T00:01:40;100860.13;;;7.66;100.00
7333;BME280;3707;43.618;25.342;2023-03-18T00:04:07;100861.06;;;7.68;100.00
7333;BME280;3707;43.618;25.342;2023-03-18T00:06:35;100867.28;;;7.73;100.00
7333;BME280;3707;43.618;25.342;2023-03-18T00:09:02;100863.91;;;7.74;100.00
7333;BME280;3707;43.618;25.342;2023-03-18T00:11:30;100840.84;;;7.56;100.00
7333;BME280;3707;43.618;25.342;2023-03-18T00:13:56;100825.78;;;7.46;100.00
7333;BME280;3707;43.618;25.342;2023-03-18T00:16:25;100852.16;;;7.60;100.00
7333;BME280;3707;43.618;25.342;2023-03-18T00:18:52;100851.78;;;7.51;100.00
7333;BME280;3707;43.618;25.342;2023-03-18T00:21:19;100842.75;;;7.39;100.00
7333;BME280;3707;43.618;25.342;2023-03-18T00:23:47;100840.84;;;7.35;100.00
7333;BME280;3707;43.618;25.342;2023-03-18T00:26:15;100844.28;;;7.34;100.00
7333;BME280;3707;43.618;25.342;2023-03-18T00:28:42;100842.38;;;7.30;100.00
7333;BME280;3707;43.618;25.342;2023-03-18T00:31:10;100818.75;;;6.99;100.00
7333;BME280;3707;43.618;25.342;2023-03-18T00:33:41;100825.16;;;6.88;100.00
7333;BME280;3707;43.618;25.342;2023-03-18T00:36:10;100832.47;;;6.77;100.00
7333;BME280;3707;43.618;25.342;2023-03-18T00:38:38;100817.25;;;6.43;100.00
7333;BME280;3707;43.618;25.342;2023-03-18T00:41:06;100846.69;;;6.48;100.00
7333;BME280;3707;43.618;25.342;2023-03-18T00:43:37;100808.84;;;6.28;100.00
7333;BME280;3707;43.618;25.342;2023-03-18T00:46:12;100815.50;;;6.04;100.00
7333;BME280;3707;43.618;25.342;2023-03-18T00:48:42;100840.66;;;6.10;100.00
7333;BME280;3707;43.618;25.342;2023-03-18T00:51:09;100835.69;;;5.95;100.00
7333;BME280;3707;43.618;25.342;2023-03-18T00:53:39;100825.25;;;5.92;100.00
7333;BME280;3707;43.618;25.342;2023-03-18T00:56:06;100818.97;;;6.05;100.00
7333;BME280;3707;43.618;25.342;2023-03-18T00:58:34;100816.47;;;6.06;100.00
7333;BME280;3707;43.618;25.342;2023-03-18T01:01:01;100815.22;;;6.17;100.00
7333;BME280;3707;43.618;25.342;2023-03-18T01:03:28;100817.34;;;6.26;100.00
7333;BME280;3707;43.618;25.342;2023-03-18T01:05:56;100815.75;;;6.48;100.00
7333;BME280;3707;43.618;25.342;2023-03-18T01:08:23;100827.13;;;6.54;100.00
7333;BME280;3707;43.618;25.342;2023-03-18T01:10:51;100803.56;;;6.44;100.00
7333;BME280;3707;43.618;25.342;2023-03-18T01:13:18;100795.97;;;6.47;100.00
7333;BME280;3707;43.618;25.342;2023-03-18T01:15:45;100816.25;;;6.61;100.00
7333;BME280;3707;43.618;25.342;2023-03-18T01:18:12;100824.75;;;6.58;100.00
7333;BME280;3707;43.618;25.342;2023-03-18T01:20:39;100816.44;;;6.44;100.00
7333;BME280;3707;43.618;25.342;2023-03-18T01:23:08;100814.75;;;6.45;100.00
7333;BME280;3707;43.618;25.342;2023-03-18T01:25:35;100808.50;;;6.40;100.00
7333;BME280;3707;43.618;25.342;2023-03-18T01:28:02;100814.41;;;6.37;100.00
7333;BME280;3707;43.618;25.342;2023-03-18T01:30:29;100814.47;;;6.39;100.00
7333;BME280;3707;43.618;25.342;2023-03-18T01:32:56;100789.75;;;6.23;100.00
7333;BME280;3707;43.618;25.342;2023-03-18T01:35:23;100811.22;;;6.43;100.00
7333;BME280;3707;43.618;25.342;2023-03-18T01:37:51;100795.75;;;6.43;100.00
7333;BME280;3707;43.618;25.342;2023-03-18T01:40:19;100811.31;;;6.65;100.00
7333;BME280;3707;43.618;25.342;2023-03-18T01:42:54;100801.13;;;6.68;100.00
7333;BME280;3707;43.618;25.342;2023-03-18T01:45:24;100784.75;;;6.66;100.00
7333;BME280;3707;43.618;25.342;2023-03-18T01:47:53;100809.19;;;6.76;100.00
7333;BME280;3707;43.618;25.342;2023-03-18T01:50:22;100807.94;;;6.87;100.00
7333;BME280;3707;43.618;25.342;2023-03-18T01:52:52;100781.66;;;6.75;100.00
7333;BME280;3707;43.618;25.342;2023-03-18T01:55:24;100782.78;;;6.81;100.00
7333;BME280;3707;43.618;25.342;2023-03-18T01:57:52;100786.34;;;6.85;100.00
7333;BME280;3707;43.618;25.342;2023-03-18T02:00:20;100801.53;;;6.98;100.00
7333;BME280;3707;43.618;25.342;2023-03-18T02:02:49;100809.50;;;7.04;100.00
7333;BME280;3707;43.618;25.342;2023-03-18T02:05:19;100812.31;;;7.10;100.00
7333;BME280;3707;43.618;25.342;2023-03-18T02:07:47;100805.03;;;7.00;100.00
7333;BME280;3707;43.618;25.342;2023-03-18T02:10:17;100710.97;;;6.47;100.00
7333;BME280;3707;43.618;25.342;2023-03-18T02:12:50;100798.06;;;6.97;100.00
7333;BME280;3707;43.618;25.342;2023-03-18T02:15:20;100757.53;;;6.73;100.00
7333;BME280;3707;43.618;25.342;2023-03-18T02:17:52;100813.72;;;7.02;100.00
7333;BME280;3707;43.618;25.342;2023-03-18T02:20:34;100812.19;;;7.07;100.00
7333;BME280;3707;43.618;25.342;2023-03-18T02:23:08;100805.41;;;7.09;100.00
7333;BME280;3707;43.618;25.342;2023-03-18T02:25:42;100810.47;;;7.06;100.00
7333;BME280;3707;43.618;25.342;2023-03-18T02:28:13;100806.53;;;7.16;100.00
7333;BME280;3707;43.618;25.342;2023-03-18T02:30:45;100802.00;;;7.10;100.00
7333;BME280;3707;43.618;25.342;2023-03-18T02:33:14;100803.66;;;7.08;100.00
7333;BME280;3707;43.618;25.342;2023-03-18T02:35:42;100810.94;;;7.18;100.00
7333;BME280;3707;43.618;25.342;2023-03-18T02:38:10;100807.31;;;7.13;100.00
7333;BME280;3707;43.618;25.342;2023-03-18T02:40:39;100798.00;;;7.17;100.00
7333;BME280;3707;43.618;25.342;2023-03-18T02:43:17;100780.88;;;7.19;100.00
7333;BME280;3707;43.618;25.342;2023-03-18T02:45:54;100777.38;;;7.17;100.00
7333;BME280;3707;43.618;25.342;2023-03-18T02:48:27;100763.41;;;7.12;100.00
7333;BME280;3707;43.618;25.342;2023-03-18T02:50:57;100761.63;;;7.11;100.00
7333;BME280;3707;43.618;25.342;2023-03-18T02:53:24;100771.22;;;6.72;100.00
7333;BME280;3707;43.618;25.342;2023-03-18T02:55:51;100784.94;;;6.91;100.00
7333;BME280;3707;43.618;25.342;2023-03-18T02:58:19;100802.09;;;7.12;100.00
7333;BME280;3707;43.618;25.342;2023-03-18T03:00:46;100803.88;;;7.14;100.00
7333;BME280;3707;43.618;25.342;2023-03-18T03:03:13;100815.31;;;6.98;100.00
7333;BME280;3707;43.618;25.342;2023-03-18T03:05:40;100806.03;;;7.04;100.00
7333;BME280;3707;43.618;25.342;2023-03-18T03:08:07;100811.47;;;7.10;100.00
7333;BME280;3707;43.618;25.342;2023-03-18T03:10:34;100806.34;;;7.11;100.00
7333;BME280;3707;43.618;25.342;2023-03-18T03:13:02;100805.31;;;7.06;100.00
7333;BME280;3707;43.618;25.342;2023-03-18T03:15:30;100805.53;;;7.12;100.00
7333;BME280;3707;43.618;25.342;2023-03-18T03:17:57;100809.72;;;6.88;100.00
7333;BME280;3707;43.618;25.342;2023-03-18T03:20:24;100810.50;;;6.87;100.00
7333;BME280;3707;43.618;25.342;2023-03-18T03:22:51;100786.56;;;6.69;100.00
7333;BME280;3707;43.618;25.342;2023-03-18T03:25:18;100802.38;;;6.78;100.00
7333;BME280;3707;43.618;25.342;2023-03-18T03:27:46;100800.13;;;6.85;100.00
7333;BME280;3707;43.618;25.342;2023-03-18T03:30:14;100770.28;;;6.70;100.00
7333;BME280;3707;43.618;25.342;2023-03-18T03:32:44;100799.25;;;6.85;100.00
7333;BME280;3707;43.618;25.342;2023-03-18T03:35:12;100788.44;;;6.73;100.00
7333;BME280;3707;43.618;25.342;2023-03-18T03:37:40;100800.69;;;6.78;100.00
7333;BME280;3707;43.618;25.342;2023-03-18T03:40:09;100808.38;;;6.77;100.00
7333;BME280;3707;43.618;25.342;2023-03-18T03:42:36;100809.75;;;6.69;100.00
7333;BME280;3707;43.618;25.342;2023-03-18T03:45:04;100792.53;;;6.68;100.00
7333;BME280;3707;43.618;25.342;2023-03-18T03:47:32;100775.72;;;6.57;100.00
7333;BME280;3707;43.618;25.342;2023-03-18T03:50:00;100782.84;;;6.62;100.00
7333;BME280;3707;43.618;25.342;2023-03-18T03:52:27;100790.19;;;6.53;100.00
7333;BME280;3707;43.618;25.342;2023-03-18T03:54:54;100802.81;;;6.47;100.00
7333;BME280;3707;43.618;25.342;2023-03-18T03:57:21;100818.25;;;6.47;100.00
7333;BME280;3707;43.618;25.342;2023-03-18T03:59:49;100822.47;;;6.45;100.00
7333;BME280;3707;43.618;25.342;2023-03-18T04:02:16;100796.44;;;6.39;100.00
7333;BME280;3707;43.618;25.342;2023-03-18T04:04:43;100818.47;;;6.52;100.00
7333;BME280;3707;43.618;25.342;2023-03-18T04:07:12;100802.88;;;6.48;100.00
7333;BME280;3707;43.618;25.342;2023-03-18T04:09:39;100827.88;;;6.51;100.00
7333;BME280;3707;43.618;25.342;2023-03-18T04:12:07;100836.41;;;6.50;100.00
7333;BME280;3707;43.618;25.342;2023-03-18T04:14:34;100836.03;;;6.41;100.00
7333;BME280;3707;43.618;25.342;2023-03-18T04:17:01;100840.03;;;6.34;100.00
7333;BME280;3707;43.618;25.342;2023-03-18T04:19:28;100836.38;;;6.29;100.00
7333;BME280;3707;43.618;25.342;2023-03-18T04:21:55;100814.97;;;6.11;100.00
7333;BME280;3707;43.618;25.342;2023-03-18T04:24:23;100845.56;;;6.24;100.00
7333;BME280;3707;43.618;25.342;2023-03-18T04:26:50;100841.59;;;6.12;100.00
7333;BME280;3707;43.618;25.342;2023-03-18T04:29:17;100846.13;;;6.17;100.00
7333;BME280;3707;43.618;25.342;2023-03-18T04:31:44;100833.94;;;6.13;100.00
7333;BME280;3707;43.618;25.342;2023-03-18T04:34:10;100826.69;;;6.05;100.00
7333;BME280;3707;43.618;25.342;2023-03-18T04:36:38;100830.41;;;6.11;100.00
7333;BME280;3707;43.618;25.342;2023-03-18T04:39:04;100812.94;;;6.04;100.00
7333;BME280;3707;43.618;25.342;2023-03-18T04:41:35;100839.75;;;6.28;100.00
7333;BME280;3707;43.618;25.342;2023-03-18T04:44:03;100802.59;;;6.03;100.00
7333;BME280;3707;43.618;25.342;2023-03-18T04:46:30;100841.66;;;6.32;100.00
7333;BME280;3707;43.618;25.342;2023-03-18T04:48:56;100838.94;;;6.29;100.00
7333;BME280;3707;43.618;25.342;2023-03-18T04:51:24;100845.03;;;6.31;100.00
7333;BME280;3707;43.618;25.342;2023-03-18T04:53:50;100828.66;;;6.29;100.00
7333;BME280;3707;43.618;25.342;2023-03-18T04:56:17;100845.56;;;6.43;100.00
7333;BME280;3707;43.618;25.342;2023-03-18T04:58:46;100846.94;;;6.55;100.00
7333;BME280;3707;43.618;25.342;2023-03-18T05:01:13;100843.13;;;6.46;100.00
7333;BME280;3707;43.618;25.342;2023-03-18T05:03:40;100852.28;;;6.59;100.00
7333;BME280;3707;43.618;25.342;2023-03-18T05:06:07;100827.06;;;6.52;100.00
7333;BME280;3707;43.618;25.342;2023-03-18T05:08:41;100850.03;;;6.67;100.00
7333;BME280;3707;43.618;25.342;2023-03-18T05:11:09;100840.78;;;6.72;100.00
7333;BME280;3707;43.618;25.342;2023-03-18T05:13:35;100761.50;;;6.25;100.00
7333;BME280;3707;43.618;25.342;2023-03-18T05:16:04;100861.09;;;6.85;100.00
7333;BME280;3707;43.618;25.342;2023-03-18T05:18:33;100851.78;;;6.68;100.00
7333;BME280;3707;43.618;25.342;2023-03-18T05:21:00;100859.78;;;6.74;100.00
7333;BME280;3707;43.618;25.342;2023-03-18T05:23:27;100844.00;;;6.66;100.00
7333;BME280;3707;43.618;25.342;2023-03-18T05:25:54;100862.28;;;6.91;100.00
7333;BME280;3707;43.618;25.342;2023-03-18T05:28:21;100869.75;;;7.06;100.00
7333;BME280;3707;43.618;25.342;2023-03-18T05:30:47;100874.59;;;7.19;100.00
7333;BME280;3707;43.618;25.342;2023-03-18T05:33:16;100885.16;;;7.05;100.00
7333;BME280;3707;43.618;25.342;2023-03-18T05:35:42;100877.50;;;7.06;100.00
7333;BME280;3707;43.618;25.342;2023-03-18T05:38:09;100872.03;;;7.19;100.00
7333;BME280;3707;43.618;25.342;2023-03-18T05:40:36;100859.50;;;7.08;100.00
7333;BME280;3707;43.618;25.342;2023-03-18T05:43:04;100862.63;;;7.21;100.00
7333;BME280;3707;43.618;25.342;2023-03-18T05:45:30;100883.44;;;7.46;100.00
7333;BME280;3707;43.618;25.342;2023-03-18T05:47:58;100890.91;;;7.61;100.00
7333;BME280;3707;43.618;25.342;2023-03-18T05:50:29;100892.06;;;7.90;100.00
7333;BME280;3707;43.618;25.342;2023-03-18T05:52:57;100893.25;;;7.98;100.00
7333;BME280;3707;43.618;25.342;2023-03-18T05:55:25;100899.69;;;7.87;100.00
7333;BME280;3707;43.618;25.342;2023-03-18T05:57:52;100904.97;;;7.90;100.00
7333;BME280;3707;43.618;25.342;2023-03-18T06:00:20;100912.00;;;7.94;100.00
7333;BME280;3707;43.618;25.342;2023-03-18T06:02:47;100879.53;;;7.78;100.00
7333;BME280;3707;43.618;25.342;2023-03-18T06:05:14;100900.63;;;7.67;100.00
7333;BME280;3707;43.618;25.342;2023-03-18T06:07:42;100921.69;;;7.99;100.00
7333;BME280;3707;43.618;25.342;2023-03-18T06:10:10;100908.63;;;7.52;99.56
7333;BME280;3707;43.618;25.342;2023-03-18T06:12:37;100932.72;;;7.73;96.35
7333;BME280;3707;43.618;25.342;2023-03-18T06:15:06;100933.13;;;7.84;99.76
7333;BME280;3707;43.618;25.342;2023-03-18T06:17:34;100930.00;;;8.13;100.00
7333;BME280;3707;43.618;25.342;2023-03-18T06:20:01;100936.19;;;8.18;100.00
7333;BME280;3707;43.618;25.342;2023-03-18T06:22:28;100931.38;;;8.05;100.00
7333;BME280;3707;43.618;25.342;2023-03-18T06:24:57;100920.91;;;7.80;100.00
7333;BME280;3707;43.618;25.342;2023-03-18T06:27:24;100943.03;;;7.73;100.00
7333;BME280;3707;43.618;25.342;2023-03-18T06:29:51;100939.00;;;7.80;100.00
7333;BME280;3707;43.618;25.342;2023-03-18T06:32:18;100933.91;;;7.61;100.00
7333;BME280;3707;43.618;25.342;2023-03-18T06:34:46;100937.59;;;7.67;100.00
7333;BME280;3707;43.618;25.342;2023-03-18T06:37:12;100856.53;;;7.19;100.00
7333;BME280;3707;43.618;25.342;2023-03-18T06:39:40;100961.25;;;7.78;100.00
7333;BME280;3707;43.618;25.342;2023-03-18T06:42:08;100961.84;;;7.71;100.00
7333;BME280;3707;43.618;25.342;2023-03-18T06:44:35;100973.50;;;7.40;100.00
7333;BME280;3707;43.618;25.342;2023-03-18T06:47:04;100951.84;;;7.37;100.00
7333;BME280;3707;43.618;25.342;2023-03-18T06:49:31;100970.16;;;7.64;100.00
7333;BME280;3707;43.618;25.342;2023-03-18T06:51:57;100972.50;;;7.58;100.00
7333;BME280;3707;43.618;25.342;2023-03-18T06:54:24;100977.09;;;7.65;100.00
7333;BME280;3707;43.618;25.342;2023-03-18T06:56:51;100971.00;;;7.85;100.00
7333;BME280;3707;43.618;25.342;2023-03-18T06:59:19;100935.78;;;7.65;100.00
7333;BME280;3707;43.618;25.342;2023-03-18T07:01:47;100918.50;;;7.62;100.00
7333;BME280;3707;43.618;25.342;2023-03-18T07:04:16;100987.63;;;7.48;95.67
7333;BME280;3707;43.618;25.342;2023-03-18T07:06:42;100986.22;;;7.57;98.63
7333;BME280;3707;43.618;25.342;2023-03-18T07:09:09;100984.66;;;7.81;99.75
7333;BME280;3707;43.618;25.342;2023-03-18T07:11:37;100978.91;;;7.88;100.00
7333;BME280;3707;43.618;25.342;2023-03-18T07:14:03;100986.34;;;7.80;95.84
7333;BME280;3707;43.618;25.342;2023-03-18T07:16:31;100989.94;;;7.84;98.38
7333;BME280;3707;43.618;25.342;2023-03-18T07:18:58;100982.66;;;7.96;100.00
7333;BME280;3707;43.618;25.342;2023-03-18T07:21:26;100993.81;;;7.74;100.00
7333;BME280;3707;43.618;25.342;2023-03-18T07:23:53;100990.59;;;7.38;100.00
7333;BME280;3707;43.618;25.342;2023-03-18T07:26:20;100989.09;;;7.85;100.00
7333;BME280;3707;43.618;25.342;2023-03-18T07:28:48;100977.00;;;7.42;99.05
7333;BME280;3707;43.618;25.342;2023-03-18T07:31:16;100996.41;;;7.54;97.89
7333;BME280;3707;43.618;25.342;2023-03-18T07:33:44;101003.72;;;7.64;95.91
7333;BME280;3707;43.618;25.342;2023-03-18T07:36:11;100978.34;;;7.14;97.57
7333;BME280;3707;43.618;25.342;2023-03-18T07:38:38;100997.41;;;7.36;100.00
7333;BME280;3707;43.618;25.342;2023-03-18T07:41:05;100999.88;;;7.14;100.00
7333;BME280;3707;43.618;25.342;2023-03-18T07:43:32;101001.75;;;7.37;100.00
7333;BME280;3707;43.618;25.342;2023-03-18T07:45:59;100996.81;;;7.63;100.00
7333;BME280;3707;43.618;25.342;2023-03-18T07:48:26;100994.84;;;7.57;100.00
7333;BME280;3707;43.618;25.342;2023-03-18T07:50:54;100998.13;;;7.74;100.00
7333;BME280;3707;43.618;25.342;2023-03-18T07:53:21;100989.50;;;7.73;100.00
7333;BME280;3707;43.618;25.342;2023-03-18T07:55:48;100996.56;;;8.20;100.00
7333;BME280;3707;43.618;25.342;2023-03-18T07:58:14;100990.47;;;8.63;97.03
7333;BME280;3707;43.618;25.342;2023-03-18T08:00:41;100988.53;;;8.35;97.27
7333;BME280;3707;43.618;25.342;2023-03-18T08:03:10;100968.00;;;8.17;92.73
7333;BME280;3707;43.618;25.342;2023-03-18T08:05:38;100997.25;;;8.16;94.38
7333;BME280;3707;43.618;25.342;2023-03-18T08:08:07;101001.97;;;8.26;92.80
7333;BME280;3707;43.618;25.342;2023-03-18T08:10:34;100990.75;;;8.26;91.02
7333;BME280;3707;43.618;25.342;2023-03-18T08:13:01;100990.66;;;8.24;86.20
7333;BME280;3707;43.618;25.342;2023-03-18T08:15:28;101007.22;;;8.07;88.09
7333;BME280;3707;43.618;25.342;2023-03-18T08:17:55;100959.81;;;8.27;85.81
7333;BME280;3707;43.618;25.342;2023-03-18T08:20:22;101008.09;;;8.73;85.37
7333;BME280;3707;43.618;25.342;2023-03-18T08:22:49;101015.03;;;8.52;81.96
7333;BME280;3707;43.618;25.342;2023-03-18T08:25:18;101007.72;;;8.64;83.15
7333;BME280;3707;43.618;25.342;2023-03-18T08:27:46;101002.44;;;8.61;81.84
7333;BME280;3707;43.618;25.342;2023-03-18T08:30:13;100991.28;;;8.62;80.25
7333;BME280;3707;43.618;25.342;2023-03-18T08:32:41;100987.28;;;8.70;77.92
7333;BME280;3707;43.618;25.342;2023-03-18T08:35:08;101004.00;;;9.03;82.23
7333;BME280;3707;43.618;25.342;2023-03-18T08:37:35;101008.31;;;8.79;75.89
7333;BME280;3707;43.618;25.342;2023-03-18T08:40:03;100974.28;;;8.92;76.92
7333;BME280;3707;43.618;25.342;2023-03-18T08:42:31;100998.41;;;9.15;75.54
7333;BME280;3707;43.618;25.342;2023-03-18T08:44:58;100995.31;;;9.01;73.80
7333;BME280;3707;43.618;25.342;2023-03-18T08:47:24;100959.16;;;9.03;71.76
7333;BME280;3707;43.618;25.342;2023-03-18T08:49:51;100991.44;;;9.14;72.98
7333;BME280;3707;43.618;25.342;2023-03-18T08:52:18;101000.72;;;9.07;73.35
7333;BME280;3707;43.618;25.342;2023-03-18T08:54:46;100995.28;;;9.25;72.40
7333;BME280;3707;43.618;25.342;2023-03-18T08:57:14;101002.72;;;8.92;70.42
7333;BME280;3707;43.618;25.342;2023-03-18T08:59:42;100973.06;;;9.06;70.63
7333;BME280;3707;43.618;25.342;2023-03-18T09:02:13;101003.44;;;9.35;63.99
7333;BME280;3707;43.618;25.342;2023-03-18T09:04:41;100975.47;;;9.25;65.35
7333;BME280;3707;43.618;25.342;2023-03-18T09:07:08;100996.50;;;9.60;65.81
7333;BME280;3707;43.618;25.342;2023-03-18T09:09:35;100977.44;;;9.83;67.64
7333;BME280;3707;43.618;25.342;2023-03-18T09:12:02;100982.69;;;9.59;64.83
7333;BME280;3707;43.618;25.342;2023-03-18T09:14:31;100996.47;;;9.85;64.20
7333;BME280;3707;43.618;25.342;2023-03-18T09:17:00;100995.22;;;9.72;63.98
7333;BME280;3707;43.618;25.342;2023-03-18T09:19:27;100978.50;;;9.89;61.54
7333;BME280;3707;43.618;25.342;2023-03-18T09:21:54;100996.88;;;9.97;59.30
7333;BME280;3707;43.618;25.342;2023-03-18T09:24:20;100995.50;;;10.08;58.54
7333;BME280;3707;43.618;25.342;2023-03-18T09:26:47;100995.53;;;10.10;52.18
7333;BME280;3707;43.618;25.342;2023-03-18T09:29:14;100985.66;;;10.23;63.04
7333;BME280;3707;43.618;25.342;2023-03-18T09:31:41;100983.81;;;10.19;55.62
7333;BME280;3707;43.618;25.342;2023-03-18T09:34:09;100986.47;;;10.51;57.12
7333;BME280;3707;43.618;25.342;2023-03-18T09:36:37;100993.69;;;10.61;56.83
7333;BME280;3707;43.618;25.342;2023-03-18T09:39:05;100980.97;;;10.40;51.94
7333;BME280;3707;43.618;25.342;2023-03-18T09:41:44;100989.16;;;10.54;51.20
7333;BME280;3707;43.618;25.342;2023-03-18T09:44:16;100807.69;;;9.37;50.33
7333;BME280;3707;43.618;25.342;2023-03-18T09:46:57;100978.53;;;10.16;49.73
7333;BME280;3707;43.618;25.342;2023-03-18T09:50:04;100976.38;;;10.31;48.64
7333;BME280;3707;43.618;25.342;2023-03-18T09:52:38;100976.03;;;10.48;47.34
7333;BME280;3707;43.618;25.342;2023-03-18T09:55:16;100972.41;;;10.42;46.40
7333;BME280;3707;43.618;25.342;2023-03-18T09:57:47;100975.56;;;10.32;47.48
7333;BME280;3707;43.618;25.342;2023-03-18T10:00:18;100985.69;;;10.53;47.17
7333;BME280;3707;43.618;25.342;2023-03-18T10:02:49;100976.47;;;10.63;47.78
7333;BME280;3707;43.618;25.342;2023-03-18T10:05:22;100978.50;;;10.73;46.33
7333;BME280;3707;43.618;25.342;2023-03-18T10:07:54;100989.56;;;10.67;46.06
7333;BME280;3707;43.618;25.342;2023-03-18T10:10:27;100970.50;;;10.65;46.28
7333;BME280;3707;43.618;25.342;2023-03-18T10:13:01;100979.03;;;10.61;47.11
7333;BME280;3707;43.618;25.342;2023-03-18T10:15:31;100974.28;;;10.76;46.34
7333;BME280;3707;43.618;25.342;2023-03-18T10:18:03;100972.44;;;10.72;46.47
7333;BME280;3707;43.618;25.342;2023-03-18T10:20:46;100967.09;;;10.68;46.67
7333;BME280;3707;43.618;25.342;2023-03-18T10:23:25;100957.38;;;10.90;47.40
7333;BME280;3707;43.618;25.342;2023-03-18T10:25:58;100957.31;;;10.87;46.03
7333;BME280;3707;43.618;25.342;2023-03-18T10:28:47;100952.88;;;10.85;45.88
7333;BME280;3707;43.618;25.342;2023-03-18T10:31:26;100944.03;;;11.10;46.30
7333;BME280;3707;43.618;25.342;2023-03-18T10:33:59;100908.69;;;10.82;46.45
7333;BME280;3707;43.618;25.342;2023-03-18T10:36:31;100942.34;;;10.79;45.86
7333;BME280;3707;43.618;25.342;2023-03-18T10:39:10;100937.22;;;10.80;46.56
7333;BME280;3707;43.618;25.342;2023-03-18T10:41:38;100939.16;;;10.87;45.52
7333;BME280;3707;43.618;25.342;2023-03-18T10:44:15;100935.59;;;10.85;46.15
7333;BME280;3707;43.618;25.342;2023-03-18T10:46:45;100912.34;;;11.21;56.49
7333;BME280;3707;43.618;25.342;2023-03-18T10:49:16;100929.50;;;11.49;47.67
7333;BME280;3707;43.618;25.342;2023-03-18T10:51:49;100932.59;;;11.69;47.92
7333;BME280;3707;43.618;25.342;2023-03-18T10:54:22;100909.97;;;11.65;46.17
7333;BME280;3707;43.618;25.342;2023-03-18T10:56:50;100913.47;;;11.65;45.78
7333;BME280;3707;43.618;25.342;2023-03-18T10:59:20;100929.94;;;11.67;45.61
7333;BME280;3707;43.618;25.342;2023-03-18T11:01:51;100923.59;;;11.55;45.88
7333;BME280;3707;43.618;25.342;2023-03-18T11:04:21;100909.91;;;11.27;46.04
7333;BME280;3707;43.618;25.342;2023-03-18T11:06:53;100917.66;;;11.60;47.20
7333;BME280;3707;43.618;25.342;2023-03-18T11:09:28;100927.16;;;11.60;46.51
7333;BME280;3707;43.618;25.342;2023-03-18T11:11:57;100906.63;;;11.69;46.81
7333;BME280;3707;43.618;25.342;2023-03-18T11:14:29;100895.88;;;11.89;46.92
7333;BME280;3707;43.618;25.342;2023-03-18T11:16:58;100872.22;;;12.16;46.28
7333;BME280;3707;43.618;25.342;2023-03-18T11:19:30;100913.66;;;12.51;47.30
7333;BME280;3707;43.618;25.342;2023-03-18T11:22:16;100908.16;;;12.79;45.71
7333;BME280;3707;43.618;25.342;2023-03-18T11:24:44;100902.03;;;12.75;46.33
7333;BME280;3707;43.618;25.342;2023-03-18T11:27:27;100908.28;;;12.85;44.60
7333;BME280;3707;43.618;25.342;2023-03-18T11:29:57;100905.44;;;12.73;46.01
7333;BME280;3707;43.618;25.342;2023-03-18T11:32:26;100904.81;;;12.86;44.96
7333;BME280;3707;43.618;25.342;2023-03-18T11:34:54;100903.44;;;12.60;44.47
7333;BME280;3707;43.618;25.342;2023-03-18T11:37:28;100901.50;;;12.50;44.62
7333;BME280;3707;43.618;25.342;2023-03-18T11:40:07;100903.75;;;12.75;44.23
7333;BME280;3707;43.618;25.342;2023-03-18T11:42:43;100888.16;;;12.33;45.02
7333;BME280;3707;43.618;25.342;2023-03-18T11:45:26;100893.75;;;12.51;44.37
7333;BME280;3707;43.618;25.342;2023-03-18T11:47:56;100898.09;;;12.12;44.76
7333;BME280;3707;43.618;25.342;2023-03-18T11:50:25;100870.84;;;12.35;44.68
7333;BME280;3707;43.618;25.342;2023-03-18T11:52:59;100892.41;;;12.71;45.10
7333;BME280;3707;43.618;25.342;2023-03-18T11:55:35;100894.06;;;12.68;44.26
7333;BME280;3707;43.618;25.342;2023-03-18T12:01:08;100875.44;;;11.69;45.68
7333;BME280;3707;43.618;25.342;2023-03-18T12:04:11;100890.56;;;11.85;45.67
7333;BME280;3707;43.618;25.342;2023-03-18T12:06:43;100881.34;;;11.98;44.57
7333;BME280;3707;43.618;25.342;2023-03-18T12:09:20;100880.13;;;12.22;45.01
7333;BME280;3707;43.618;25.342;2023-03-18T12:12:03;100880.91;;;12.18;44.33
7333;BME280;3707;43.618;25.342;2023-03-18T12:14:37;100875.44;;;12.47;45.39
7333;BME280;3707;43.618;25.342;2023-03-18T12:17:15;100880.06;;;12.61;44.43
7333;BME280;3707;43.618;25.342;2023-03-18T12:22:50;100880.41;;;12.79;43.62
7333;BME280;3707;43.618;25.342;2023-03-18T12:25:30;100880.75;;;12.99;43.17
7333;BME280;3707;43.618;25.342;2023-03-18T12:28:07;100876.63;;;12.62;43.79
7333;BME280;3707;43.618;25.342;2023-03-18T12:30:48;100875.59;;;12.56;45.03
7333;BME280;3707;43.618;25.342;2023-03-18T12:33:29;100877.81;;;12.81;43.99
7333;BME280;3707;43.618;25.342;2023-03-18T12:36:03;100878.88;;;12.90;43.23
7333;BME280;3707;43.618;25.342;2023-03-18T12:38:55;100866.72;;;13.37;43.93
7333;BME280;3707;43.618;25.342;2023-03-18T12:41:34;100852.31;;;13.08;43.48
7333;BME280;3707;43.618;25.342;2023-03-18T12:44:21;100876.97;;;13.28;43.23
7333;BME280;3707;43.618;25.342;2023-03-18T12:46:54;100869.16;;;13.28;42.45
7333;BME280;3707;43.618;25.342;2023-03-18T12:49:27;100868.31;;;13.29;41.94
7333;BME280;3707;43.618;25.342;2023-03-18T12:52:00;100861.66;;;12.97;43.58
7333;BME280;3707;43.618;25.342;2023-03-18T12:54:31;100863.25;;;13.38;43.46
7333;BME280;3707;43.618;25.342;2023-03-18T12:57:03;100858.91;;;13.37;42.99
7333;BME280;3707;43.618;25.342;2023-03-18T12:59:36;100862.44;;;13.41;43.71
7333;BME280;3707;43.618;25.342;2023-03-18T13:02:31;100869.91;;;13.21;42.41
7333;BME280;3707;43.618;25.342;2023-03-18T13:05:03;100868.56;;;12.50;43.06
7333;BME280;3707;43.618;25.342;2023-03-18T13:07:38;100868.34;;;12.39;43.45
7333;BME280;3707;43.618;25.342;2023-03-18T13:10:16;100872.78;;;12.45;44.34
7333;BME280;3707;43.618;25.342;2023-03-18T13:12:47;100859.94;;;12.53;43.49
7333;BME280;3707;43.618;25.342;2023-03-18T13:15:21;100861.06;;;12.65;42.66
7333;BME280;3707;43.618;25.342;2023-03-18T13:17:54;100851.69;;;12.75;46.17
7333;BME280;3707;43.618;25.342;2023-03-18T13:20:24;100850.72;;;12.68;42.39
7333;BME280;3707;43.618;25.342;2023-03-18T13:23:09;100849.94;;;12.74;42.94